createdAt,value
2018-04-17T00:02:12.368Z,5.00
2018-04-17T00:04:40.649Z,5.73
2018-04-17T00:07:08.929Z,5.33
2018-04-17T00:09:37.250Z,6.03
2018-04-17T00:12:05.560Z,6.10
2018-04-17T00:14:33.853Z,5.53
2018-04-17T00:17:02.136Z,5.37
2018-04-17T00:19:30.443Z,5.10
2018-04-17T00:21:58.735Z,5.37
2018-04-17T00:24:27.066Z,4.90
2018-04-17T00:26:55.359Z,5.80
2018-04-17T00:29:23.681Z,5.87
2018-04-17T00:31:51.955Z,5.97
2018-04-17T00:34:20.239Z,5.50
2018-04-17T00:36:48.531Z,6.20
2018-04-17T00:39:16.832Z,5.50
2018-04-17T00:41:45.130Z,5.20
2018-04-17T00:44:13.440Z,5.03
2018-04-17T00:46:41.752Z,5.93
2018-04-17T00:49:10.075Z,5.33
2018-04-17T00:51:38.398Z,5.77
2018-04-17T00:54:07.671Z,5.70
2018-04-17T00:56:35.987Z,5.23
2018-04-17T00:59:04.296Z,5.40
2018-04-17T01:01:32.611Z,5.90
2018-04-17T01:04:00.935Z,5.40
2018-04-17T01:06:29.247Z,6.17
2018-04-17T01:08:57.579Z,6.10
2018-04-17T01:11:25.896Z,5.43
2018-04-17T01:13:54.187Z,6.33
2018-04-17T01:16:22.477Z,6.03
2018-04-17T01:18:50.779Z,6.27
2018-04-17T01:21:19.100Z,4.90
2018-04-17T01:23:47.384Z,5.27
2018-04-17T01:26:15.732Z,5.63
2018-04-17T01:28:44.021Z,5.60
2018-04-17T01:31:12.320Z,5.00
2018-04-17T01:33:40.583Z,5.30
2018-04-17T01:36:08.859Z,5.23
2018-04-17T01:38:37.171Z,5.87
2018-04-17T01:41:05.456Z,5.27
2018-04-17T01:43:33.716Z,5.57
2018-04-17T01:46:02.027Z,5.83
2018-04-17T01:48:30.359Z,5.77
2018-04-17T01:50:58.635Z,5.37
2018-04-17T01:53:26.951Z,5.60
2018-04-17T01:55:55.282Z,6.23
2018-04-17T01:58:23.586Z,6.43
2018-04-17T02:00:51.909Z,4.97
2018-04-17T02:03:20.211Z,5.43
2018-04-17T02:05:48.539Z,6.45
2018-04-17T02:08:16.824Z,5.90
2018-04-17T02:10:45.122Z,5.47
2018-04-17T02:13:13.383Z,5.60
2018-04-17T02:15:41.710Z,5.80
2018-04-17T02:18:10.016Z,5.40
2018-04-17T02:20:38.316Z,6.25
2018-04-17T02:23:06.647Z,6.75
2018-04-17T02:25:35.032Z,6.47
2018-04-17T02:28:03.324Z,5.55
2018-04-17T02:30:31.632Z,5.80
2018-04-17T02:32:59.907Z,6.32
2018-04-17T02:35:29.244Z,5.60
2018-04-17T02:37:59.597Z,5.97
2018-04-17T02:40:27.879Z,5.65
2018-04-17T02:42:56.179Z,6.70
2018-04-17T02:45:24.512Z,5.67
2018-04-17T02:47:52.809Z,6.05
2018-04-17T02:50:21.113Z,5.60
2018-04-17T02:52:49.420Z,5.55
2018-04-17T02:55:17.690Z,5.05
2018-04-17T02:57:45.998Z,6.57
2018-04-17T03:00:14.315Z,6.12
2018-04-17T03:02:42.621Z,5.75
2018-04-17T03:05:10.913Z,6.75
2018-04-17T03:07:39.256Z,6.50
2018-04-17T03:10:07.549Z,7.82
2018-04-17T03:12:35.851Z,6.20
2018-04-17T03:15:05.171Z,6.45
2018-04-17T03:17:33.452Z,8.07
2018-04-17T03:20:01.751Z,6.32
2018-04-17T03:22:30.098Z,6.85
2018-04-17T03:24:58.380Z,6.65
2018-04-17T03:27:26.679Z,7.18
2018-04-17T03:29:55.053Z,6.75
2018-04-17T03:32:23.363Z,7.00
2018-04-17T03:34:51.714Z,6.60
2018-04-17T03:37:20.103Z,6.70
2018-04-17T03:39:48.437Z,6.70
2018-04-17T03:42:16.724Z,6.43
2018-04-17T03:44:44.996Z,7.60
2018-04-17T03:47:13.336Z,6.55
2018-04-17T03:49:41.673Z,8.55
2018-04-17T03:52:09.983Z,8.00
2018-04-17T03:54:38.412Z,8.63
2018-04-17T03:57:06.711Z,7.90
2018-04-17T03:59:35.043Z,7.95
2018-04-17T04:02:03.362Z,7.75
2018-04-17T04:04:31.712Z,8.05
2018-04-17T04:07:00.096Z,7.90
2018-04-17T04:09:28.397Z,8.15
2018-04-17T04:11:56.707Z,8.02
2018-04-17T04:14:25.036Z,8.10
2018-04-17T04:16:59.393Z,8.07
2018-04-17T04:19:33.968Z,7.85
2018-04-17T04:22:08.508Z,8.13
2018-04-17T04:24:42.973Z,9.10
2018-04-17T04:27:11.257Z,7.82
2018-04-17T04:29:39.595Z,8.35
2018-04-17T04:32:09.989Z,7.95
2018-04-17T04:34:38.828Z,8.95
2018-04-17T04:37:07.127Z,8.80
2018-04-17T04:39:35.452Z,10.38
2018-04-17T04:42:03.803Z,8.35
2018-04-17T04:44:32.107Z,8.85
2018-04-17T04:47:00.427Z,9.00
2018-04-17T04:49:28.688Z,7.90
2018-04-17T04:51:57.080Z,8.85
2018-04-17T04:54:25.396Z,8.20
2018-04-17T04:56:53.823Z,8.95
2018-04-17T04:59:22.195Z,8.15
2018-04-17T05:01:50.520Z,9.43
2018-04-17T05:04:18.803Z,9.00
2018-04-17T05:06:47.115Z,7.90
2018-04-17T05:09:16.477Z,8.40
2018-04-17T05:11:44.775Z,8.80
2018-04-17T05:14:13.091Z,8.05
2018-04-17T05:16:41.470Z,8.50
2018-04-17T05:19:09.751Z,8.10
2018-04-17T05:21:38.032Z,9.70
2018-04-17T05:24:06.348Z,8.00
2018-04-17T05:26:34.623Z,8.27
2018-04-17T05:29:17.891Z,9.75
2018-04-17T05:31:46.191Z,8.18
2018-04-17T05:34:14.535Z,9.95
2018-04-17T05:36:42.813Z,9.52
2018-04-17T05:39:11.095Z,9.00
2018-04-17T05:41:39.432Z,9.20
2018-04-17T05:44:07.699Z,8.63
2018-04-17T05:46:35.980Z,8.13
2018-04-17T05:49:04.305Z,9.52
2018-04-17T05:51:32.623Z,9.77
2018-04-17T05:54:00.955Z,10.33
2018-04-17T05:56:29.219Z,11.50
2018-04-17T05:58:57.484Z,10.38
2018-04-17T06:01:25.810Z,10.63
2018-04-17T06:03:54.115Z,9.77
2018-04-17T06:06:22.395Z,10.63
2018-04-17T06:08:50.680Z,9.60
2018-04-17T06:11:18.997Z,10.83
2018-04-17T06:13:48.392Z,8.53
2018-04-17T06:16:16.672Z,11.20
2018-04-17T06:18:44.971Z,11.60
2018-04-17T06:21:13.247Z,10.50
2018-04-17T06:23:41.604Z,10.27
2018-04-17T06:26:09.926Z,9.73
2018-04-17T06:28:39.431Z,10.87
2018-04-17T06:31:07.808Z,10.47
2018-04-17T06:33:36.127Z,10.80
2018-04-17T06:36:04.435Z,9.13
2018-04-17T06:38:32.733Z,11.13
2018-04-17T06:41:01.098Z,9.07
2018-04-17T06:43:29.380Z,10.03
2018-04-17T06:45:57.679Z,9.30
2018-04-17T06:48:25.988Z,10.13
2018-04-17T06:50:54.280Z,9.60
2018-04-17T06:53:22.568Z,9.70
2018-04-17T06:55:50.875Z,11.83
2018-04-17T06:58:19.239Z,9.90
2018-04-17T07:00:47.540Z,10.50
2018-04-17T07:03:16.799Z,9.50
2018-04-17T07:05:45.080Z,11.03
2018-04-17T07:08:13.375Z,9.80
2018-04-17T07:10:41.702Z,10.90
2018-04-17T07:13:10.012Z,9.73
2018-04-17T07:15:38.295Z,10.23
2018-04-17T07:18:06.588Z,10.13
2018-04-17T07:20:34.915Z,9.57
2018-04-17T07:23:03.215Z,9.90
2018-04-17T07:25:31.535Z,10.30
2018-04-17T07:28:00.923Z,9.37
2018-04-17T07:30:29.200Z,10.30
2018-04-17T07:32:57.483Z,10.10
2018-04-17T07:35:25.815Z,11.17
2018-04-17T07:37:54.144Z,11.20
2018-04-17T07:40:22.536Z,10.47
2018-04-17T07:42:51.791Z,11.77
2018-04-17T07:45:20.075Z,10.23
2018-04-17T07:47:54.684Z,11.13
2018-04-17T07:50:23.001Z,10.10
2018-04-17T07:52:51.289Z,10.73
2018-04-17T07:55:19.580Z,12.03
2018-04-17T07:57:47.884Z,11.00
2018-04-17T08:00:16.197Z,10.70
2018-04-17T08:02:44.500Z,11.47
2018-04-17T08:05:12.811Z,11.93
2018-04-17T08:07:41.113Z,11.90
2018-04-17T08:10:09.394Z,11.97
2018-04-17T08:12:37.699Z,12.23
2018-04-17T08:15:06.028Z,12.20
2018-04-17T08:17:34.359Z,13.40
2018-04-17T08:20:02.607Z,13.67
2018-04-17T08:22:30.882Z,12.80
2018-04-17T08:24:59.179Z,10.80
2018-04-17T08:27:27.471Z,11.83
2018-04-17T08:29:55.773Z,12.97
2018-04-17T08:32:24.106Z,11.27
2018-04-17T08:34:52.398Z,13.17
2018-04-17T08:37:20.685Z,10.87
2018-04-17T08:39:48.991Z,12.17
2018-04-17T08:42:17.239Z,12.27
2018-04-17T08:44:45.568Z,12.03
2018-04-17T08:47:13.854Z,12.80
2018-04-17T08:49:42.135Z,13.73
2018-04-17T08:52:10.432Z,12.20
2018-04-17T08:54:38.720Z,14.93
2018-04-17T08:57:06.963Z,13.20
2018-04-17T08:59:35.296Z,12.90
2018-04-17T09:02:03.599Z,13.70
2018-04-17T09:04:31.896Z,13.80
2018-04-17T09:07:00.200Z,14.67
2018-04-17T09:09:28.467Z,14.33
2018-04-17T09:11:56.806Z,12.30
2018-04-17T09:14:25.103Z,12.67
2018-04-17T09:16:53.419Z,13.57
2018-04-17T09:19:21.679Z,14.90
2018-04-17T09:21:49.956Z,15.57
2018-04-17T09:24:18.259Z,14.63
2018-04-17T09:26:46.535Z,15.60
2018-04-17T09:29:14.939Z,15.33
2018-04-17T09:31:43.188Z,16.40
2018-04-17T09:34:11.484Z,15.93
2018-04-17T09:36:39.819Z,14.13
2018-04-17T09:39:08.102Z,15.80
2018-04-17T09:41:36.393Z,15.70
2018-04-17T09:44:05.724Z,15.03
2018-04-17T09:46:34.016Z,15.27
2018-04-17T09:49:02.284Z,14.80
2018-04-17T09:51:30.569Z,15.30
2018-04-17T09:53:58.879Z,18.17
2018-04-17T09:56:27.175Z,16.50
2018-04-17T09:58:55.476Z,16.57
2018-04-17T10:01:23.796Z,15.57
2018-04-17T10:03:52.109Z,15.33
2018-04-17T10:06:20.443Z,13.83
2018-04-17T10:08:48.782Z,14.77
2018-04-17T10:11:17.037Z,16.20
2018-04-17T10:13:45.351Z,15.13
2018-04-17T10:16:13.655Z,15.83
2018-04-17T10:18:41.967Z,15.37
2018-04-17T10:21:11.366Z,16.87
2018-04-17T10:23:39.681Z,14.03
2018-04-17T10:26:07.988Z,14.03
2018-04-17T10:28:36.296Z,13.77
2018-04-17T10:31:04.603Z,12.40
2018-04-17T10:33:32.913Z,9.50
2018-04-17T10:36:01.196Z,9.07
2018-04-17T10:38:29.508Z,10.43
2018-04-17T10:40:57.829Z,12.30
2018-04-17T10:43:26.157Z,11.80
2018-04-17T10:45:54.463Z,11.67
2018-04-17T10:48:22.715Z,9.50
2018-04-17T10:50:50.991Z,9.77
2018-04-17T10:53:19.243Z,12.37
2018-04-17T10:55:47.561Z,9.40
2018-04-17T10:58:15.844Z,7.33
2018-04-17T11:00:44.108Z,6.33
2018-04-17T11:03:12.435Z,5.90
2018-04-17T11:05:40.751Z,6.30
2018-04-17T11:08:09.048Z,5.07
2018-04-17T11:10:37.360Z,5.90
2018-04-17T11:13:05.659Z,5.90
2018-04-17T11:15:33.962Z,4.57
2018-04-17T11:18:02.284Z,5.10
2018-04-17T11:20:30.575Z,4.73
2018-04-17T11:22:58.868Z,4.43
2018-04-17T11:25:29.756Z,6.10
2018-04-17T11:27:58.063Z,7.10
2018-04-17T11:30:27.387Z,6.80
2018-04-17T11:32:55.664Z,5.87
2018-04-17T11:35:23.959Z,4.40
2018-04-17T11:37:52.304Z,5.70
2018-04-17T11:40:20.582Z,3.07
2018-04-17T11:42:48.939Z,3.20
2018-04-17T11:45:17.208Z,3.47
2018-04-17T11:47:45.501Z,3.13
2018-04-17T11:50:13.819Z,4.40
2018-04-17T11:52:42.140Z,3.80
2018-04-17T11:55:10.421Z,3.67
2018-04-17T11:57:38.715Z,2.70
2018-04-17T12:00:07.000Z,2.70
2018-04-17T12:02:35.263Z,13.13
2018-04-17T12:05:03.556Z,5.07
2018-04-17T12:07:31.923Z,24.83
2018-04-17T12:10:00.240Z,3.53
2018-04-17T12:12:28.500Z,2.90
2018-04-17T12:14:56.787Z,2.10
2018-04-17T12:17:25.076Z,2.30
2018-04-17T12:19:53.395Z,2.40
2018-04-17T12:22:21.683Z,2.90
2018-04-17T12:24:49.954Z,3.20
2018-04-17T12:27:18.224Z,6.37
2018-04-17T12:29:46.522Z,2.57
2018-04-17T12:32:14.851Z,4.93
2018-04-17T12:34:43.164Z,2.83
2018-04-17T12:37:11.591Z,1.93
2018-04-17T12:39:39.872Z,1.83
2018-04-17T12:42:08.138Z,2.67
2018-04-17T12:44:36.420Z,2.07
2018-04-17T12:47:04.696Z,2.57
2018-04-17T12:49:32.951Z,2.10
2018-04-17T12:52:01.350Z,2.77
2018-04-17T12:54:29.576Z,1.60
2018-04-17T12:56:57.900Z,2.00
2018-04-17T12:59:26.229Z,2.53
2018-04-17T13:01:54.500Z,1.97
2018-04-17T13:04:22.908Z,2.77
2018-04-17T13:06:51.235Z,2.47
2018-04-17T13:09:19.557Z,2.20
2018-04-17T13:11:47.897Z,2.43
2018-04-17T13:14:16.213Z,2.50
2018-04-17T13:16:44.473Z,2.63
2018-04-17T13:19:12.954Z,2.60
2018-04-17T13:21:41.273Z,2.90
2018-04-17T13:24:09.587Z,2.03
2018-04-17T13:26:52.842Z,2.00
2018-04-17T13:29:21.104Z,1.80
2018-04-17T13:31:49.386Z,2.10
2018-04-17T13:34:17.637Z,2.20
2018-04-17T13:36:45.923Z,2.30
2018-04-17T13:39:14.232Z,2.10
2018-04-17T13:41:42.523Z,2.70
2018-04-17T13:44:10.833Z,2.40
2018-04-17T13:46:39.136Z,2.30
2018-04-17T13:49:07.426Z,2.40
2018-04-17T13:51:35.696Z,2.50
2018-04-17T13:54:04.018Z,2.53
2018-04-17T13:56:32.311Z,3.67
2018-04-17T13:59:00.576Z,2.80
2018-04-17T14:01:28.859Z,3.00
2018-04-17T14:03:57.152Z,2.60
2018-04-17T14:06:25.419Z,2.37
2018-04-17T14:08:53.714Z,2.73
2018-04-17T14:11:22.019Z,2.90
2018-04-17T14:13:50.279Z,2.30
2018-04-17T14:16:18.595Z,2.37
2018-04-17T14:18:46.852Z,2.73
2018-04-17T14:21:15.108Z,2.23
2018-04-17T14:23:43.403Z,2.10
2018-04-17T14:26:12.687Z,2.60
2018-04-17T14:28:40.969Z,2.33
2018-04-17T14:31:09.276Z,1.90
2018-04-17T14:33:37.523Z,3.23
2018-04-17T14:36:05.791Z,3.23
2018-04-17T14:38:34.067Z,2.60
2018-04-17T14:41:02.312Z,2.40
2018-04-17T14:43:30.603Z,2.37
2018-04-17T14:45:58.908Z,2.70
2018-04-17T14:48:27.201Z,2.10
2018-04-17T14:50:55.490Z,2.50
2018-04-17T14:53:23.780Z,2.00
2018-04-17T14:55:52.071Z,2.90
2018-04-17T14:58:20.333Z,2.37
2018-04-17T15:00:48.661Z,2.33
2018-04-17T15:03:16.977Z,2.57
2018-04-17T15:05:45.306Z,2.50
2018-04-17T15:08:13.668Z,2.23
2018-04-17T15:10:41.971Z,2.03
2018-04-17T15:13:10.230Z,2.17
2018-04-17T15:15:38.561Z,2.70
2018-04-17T15:18:06.861Z,2.13
2018-04-17T15:20:35.123Z,1.60
2018-04-17T15:23:03.455Z,2.50
2018-04-17T15:25:31.733Z,2.33
2018-04-17T15:28:00.021Z,2.00
2018-04-17T15:30:28.293Z,2.23
2018-04-17T15:32:56.605Z,1.80
2018-04-17T15:35:24.917Z,2.27
2018-04-17T15:37:53.210Z,2.00
2018-04-17T15:40:21.507Z,2.23
2018-04-17T15:42:49.772Z,1.77
2018-04-17T15:45:18.044Z,2.03
2018-04-17T15:47:46.358Z,1.87
2018-04-17T15:50:14.664Z,1.80
2018-04-17T15:52:42.970Z,2.27
2018-04-17T15:55:11.232Z,2.87
2018-04-17T15:57:39.505Z,2.03
2018-04-17T16:00:07.781Z,2.00
2018-04-17T16:02:36.084Z,2.00
2018-04-17T16:05:04.359Z,2.60
2018-04-17T16:07:32.653Z,2.37
2018-04-17T16:10:15.843Z,2.20
2018-04-17T16:12:44.187Z,2.20
2018-04-17T16:15:12.467Z,2.10
2018-04-17T16:17:40.755Z,2.53
2018-04-17T16:20:09.040Z,2.30
2018-04-17T16:22:37.371Z,1.80
2018-04-17T16:25:05.789Z,2.50
2018-04-17T16:27:34.075Z,2.50
2018-04-17T16:30:02.367Z,2.00
2018-04-17T16:32:30.607Z,2.10
2018-04-17T16:34:58.988Z,3.07
2018-04-17T16:37:27.284Z,2.20
2018-04-17T16:39:55.579Z,2.30
2018-04-17T16:42:23.864Z,1.77
2018-04-17T16:44:52.140Z,2.53
2018-04-17T16:47:20.424Z,1.77
2018-04-17T16:49:48.787Z,2.20
2018-04-17T16:52:17.080Z,2.33
2018-04-17T16:54:45.373Z,3.40
2018-04-17T16:57:13.673Z,2.50
2018-04-17T16:59:41.976Z,3.20
2018-04-17T17:02:10.272Z,2.43
2018-04-17T17:04:38.603Z,3.20
2018-04-17T17:07:06.879Z,2.97
2018-04-17T17:09:35.241Z,2.90
2018-04-17T17:12:03.588Z,4.10
2018-04-17T17:14:31.896Z,3.07
2018-04-17T17:17:00.234Z,3.47
2018-04-17T17:19:28.532Z,4.60
2018-04-17T17:21:56.827Z,3.40
2018-04-17T17:24:25.236Z,3.70
2018-04-17T17:26:53.596Z,2.50
2018-04-17T17:29:21.924Z,3.30
2018-04-17T17:31:50.204Z,2.97
2018-04-17T17:34:18.507Z,2.90
2018-04-17T17:36:46.809Z,4.33
2018-04-17T17:39:17.011Z,3.53
2018-04-17T17:41:45.320Z,3.83
2018-04-17T17:44:13.585Z,3.70
2018-04-17T17:46:41.927Z,4.10
2018-04-17T17:49:10.233Z,4.27
2018-04-17T17:51:38.539Z,3.90
2018-04-17T17:54:06.847Z,4.07
2018-04-17T17:56:35.268Z,3.67
2018-04-17T17:59:04.603Z,3.80
2018-04-17T18:01:32.883Z,3.20
2018-04-17T18:04:01.194Z,3.20
2018-04-17T18:06:29.519Z,4.03
2018-04-17T18:08:57.824Z,3.83
2018-04-17T18:11:26.117Z,5.03
2018-04-17T18:13:54.435Z,6.60
2018-04-17T18:16:22.727Z,5.47
2018-04-17T18:18:51.028Z,4.07
2018-04-17T18:21:21.443Z,4.30
2018-04-17T18:23:49.759Z,3.40
2018-04-17T18:26:18.027Z,3.30
2018-04-17T18:28:46.308Z,4.03
2018-04-17T18:31:14.627Z,3.70
2018-04-17T18:33:42.908Z,3.93
2018-04-17T18:36:11.242Z,3.60
2018-04-17T18:38:39.519Z,4.27
2018-04-17T18:41:07.841Z,3.47
2018-04-17T18:43:36.127Z,3.70
2018-04-17T18:46:04.477Z,4.30
2018-04-17T18:48:32.780Z,3.83
2018-04-17T18:51:01.075Z,3.87
2018-04-17T18:53:29.352Z,4.37
2018-04-17T18:55:57.679Z,4.07
2018-04-17T18:58:25.947Z,4.77
2018-04-17T19:00:54.252Z,3.93
2018-04-17T19:03:22.575Z,5.50
2018-04-17T19:05:50.847Z,4.93
2018-04-17T19:08:19.132Z,5.03
2018-04-17T19:10:47.448Z,5.23
2018-04-17T19:13:15.739Z,5.37
2018-04-17T19:15:44.092Z,4.70
2018-04-17T19:18:12.387Z,5.27
2018-04-17T19:20:40.683Z,4.80
2018-04-17T19:23:08.966Z,5.50
2018-04-17T19:25:37.291Z,5.43
2018-04-17T19:28:05.584Z,5.60
2018-04-17T19:30:33.883Z,5.47
2018-04-17T19:33:02.293Z,5.40
2018-04-17T19:35:30.576Z,5.30
2018-04-17T19:37:58.869Z,5.13
2018-04-17T19:40:27.156Z,6.27
2018-04-17T19:42:55.476Z,5.30
2018-04-17T19:45:23.959Z,5.03
2018-04-17T19:47:52.157Z,4.53
2018-04-17T19:50:20.540Z,4.90
2018-04-17T19:52:48.831Z,4.80
2018-04-17T19:55:17.131Z,4.77
2018-04-17T19:57:46.529Z,5.47
2018-04-17T20:00:14.837Z,4.80
2018-04-17T20:02:43.130Z,4.43
2018-04-17T20:05:12.416Z,4.30
2018-04-17T20:07:40.688Z,4.73
2018-04-17T20:10:09.004Z,4.73
2018-04-17T20:12:37.311Z,5.40
2018-04-17T20:15:05.626Z,5.00
2018-04-17T20:17:33.928Z,5.37
2018-04-17T20:20:02.251Z,5.90
2018-04-17T20:22:30.561Z,4.60
2018-04-17T20:24:58.893Z,5.67
2018-04-17T20:27:27.204Z,5.60
2018-04-17T20:29:55.487Z,5.90
2018-04-17T20:32:23.777Z,5.03
2018-04-17T20:34:53.095Z,6.30
2018-04-17T20:37:21.427Z,5.67
2018-04-17T20:39:49.739Z,6.50
2018-04-17T20:42:18.067Z,5.00
2018-04-17T20:44:46.452Z,5.80
2018-04-17T20:47:14.747Z,5.50
2018-04-17T20:49:43.044Z,6.03
2018-04-17T20:52:11.359Z,4.83
2018-04-17T20:54:39.701Z,5.77
2018-04-17T20:57:08.028Z,6.60
2018-04-17T20:59:36.352Z,6.40
2018-04-17T21:02:04.676Z,5.90
2018-04-17T21:04:32.964Z,5.67
2018-04-17T21:07:01.244Z,5.90
2018-04-17T21:09:29.560Z,6.03
2018-04-17T21:11:57.868Z,5.87
2018-04-17T21:14:26.216Z,6.40
2018-04-17T21:16:54.545Z,6.57
2018-04-17T21:19:22.832Z,5.70
2018-04-17T21:21:51.179Z,5.60
2018-04-17T21:24:19.495Z,6.13
2018-04-17T21:26:47.788Z,6.00
2018-04-17T21:29:16.076Z,7.30
2018-04-17T21:31:44.367Z,6.10
2018-04-17T21:34:12.700Z,5.90
2018-04-17T21:36:41.015Z,6.17
2018-04-17T21:39:09.324Z,7.23
2018-04-17T21:41:37.695Z,5.80
2018-04-17T21:44:05.977Z,6.63
2018-04-17T21:46:34.312Z,6.40
2018-04-17T21:49:02.624Z,5.63
2018-04-17T21:51:30.948Z,6.07
2018-04-17T21:53:59.252Z,6.07
2018-04-17T21:56:27.536Z,7.40
2018-04-17T21:58:55.842Z,6.60
2018-04-17T22:01:27.183Z,6.03
2018-04-17T22:03:55.508Z,6.07
2018-04-17T22:06:23.815Z,6.83
2018-04-17T22:08:52.098Z,6.83
2018-04-17T22:11:20.399Z,6.37
2018-04-17T22:13:48.735Z,6.37
2018-04-17T22:16:17.048Z,5.70
2018-04-17T22:18:45.339Z,6.30
2018-04-17T22:21:13.670Z,6.60
2018-04-17T22:23:41.972Z,6.90
2018-04-17T22:26:10.272Z,6.10
2018-04-17T22:28:39.772Z,5.10
2018-04-17T22:31:08.088Z,6.10
2018-04-17T22:33:36.468Z,6.00
2018-04-17T22:36:04.780Z,6.00
2018-04-17T22:38:34.088Z,5.63
2018-04-17T22:41:02.397Z,6.50
2018-04-17T22:43:30.731Z,6.20
2018-04-17T22:45:59.039Z,6.40
2018-04-17T22:48:28.393Z,4.80
2018-04-17T22:50:56.716Z,5.50
2018-04-17T22:53:25.058Z,5.33
2018-04-17T22:55:53.447Z,5.43
2018-04-17T22:58:21.772Z,5.10
2018-04-17T23:00:50.093Z,5.83
2018-04-17T23:03:18.357Z,5.33
2018-04-17T23:05:46.672Z,6.30
2018-04-17T23:08:15.968Z,6.10
2018-04-17T23:10:44.244Z,6.47
2018-04-17T23:13:12.568Z,6.63
2018-04-17T23:15:40.861Z,5.43
2018-04-17T23:18:09.151Z,5.13
2018-04-17T23:20:37.455Z,5.77
2018-04-17T23:23:05.731Z,5.70
2018-04-17T23:25:34.027Z,5.37
2018-04-17T23:28:02.376Z,7.70
2018-04-17T23:30:30.688Z,5.77
2018-04-17T23:32:58.999Z,7.23
2018-04-17T23:35:27.300Z,5.93
2018-04-17T23:37:55.616Z,6.17
2018-04-17T23:40:23.928Z,5.73
2018-04-17T23:42:52.231Z,6.37
2018-04-17T23:45:20.527Z,5.60
2018-04-17T23:47:48.813Z,6.10
2018-04-17T23:50:17.124Z,6.30
2018-04-17T23:52:45.404Z,6.00
2018-04-17T23:55:13.751Z,6.13
2018-04-17T23:57:43.123Z,5.17
